createdAt,value
2022-08-29T00:01:10.351Z,2.57
2022-08-29T00:03:37.539Z,2.23
2022-08-29T00:06:05.175Z,2.67
2022-08-29T00:08:32.129Z,6.30
2022-08-29T00:10:59.210Z,3.47
2022-08-29T00:13:27.664Z,2.10
2022-08-29T00:15:54.698Z,1.20
2022-08-29T00:18:21.652Z,2.73
2022-08-29T00:20:48.843Z,1.47
2022-08-29T00:23:15.940Z,1.73
2022-08-29T00:25:43.147Z,2.73
2022-08-29T00:28:10.166Z,1.97
2022-08-29T00:30:37.597Z,1.90
2022-08-29T00:33:04.628Z,3.43
2022-08-29T00:35:35.287Z,2.50
2022-08-29T00:38:03.697Z,3.13
2022-08-29T00:40:51.163Z,3.53
2022-08-29T00:43:24.760Z,5.43
2022-08-29T00:46:09.299Z,2.77
2022-08-29T00:48:38.383Z,4.10
2022-08-29T00:51:09.225Z,3.77
2022-08-29T00:53:40.064Z,2.33
2022-08-29T00:56:08.729Z,3.13
2022-08-29T00:58:41.584Z,3.70
2022-08-29T01:01:09.160Z,3.70
2022-08-29T01:03:42.681Z,3.60
2022-08-29T01:06:11.415Z,1.87
2022-08-29T01:08:38.373Z,3.37
2022-08-29T01:11:24.116Z,2.67
2022-08-29T01:13:53.041Z,4.57
2022-08-29T01:16:21.234Z,2.60
2022-08-29T01:18:53.454Z,5.90
2022-08-29T01:21:36.593Z,4.43
2022-08-29T01:24:15.479Z,3.40
2022-08-29T01:26:44.628Z,4.57
2022-08-29T01:29:12.062Z,1.93
2022-08-29T01:31:56.077Z,2.27
2022-08-29T01:34:27.410Z,2.97
2022-08-29T01:37:05.960Z,3.67
2022-08-29T01:39:36.068Z,1.80
2022-08-29T01:42:13.146Z,2.83
2022-08-29T01:44:41.701Z,2.27
2022-08-29T01:47:09.761Z,3.47
2022-08-29T01:49:40.833Z,1.60
2022-08-29T01:52:08.385Z,3.33
2022-08-29T01:54:35.498Z,2.70
2022-08-29T01:57:02.809Z,2.83
2022-08-29T01:59:31.291Z,3.80
2022-08-29T02:02:09.341Z,2.80
2022-08-29T02:04:36.379Z,5.27
2022-08-29T02:07:03.960Z,2.10
2022-08-29T02:09:31.098Z,2.70
2022-08-29T02:12:00.332Z,3.73
2022-08-29T02:14:27.292Z,1.87
2022-08-29T02:16:54.200Z,5.13
2022-08-29T02:19:21.337Z,2.50
2022-08-29T02:21:48.368Z,4.40
2022-08-29T02:24:26.281Z,3.53
2022-08-29T02:26:56.167Z,4.33
2022-08-29T02:29:24.281Z,9.13
2022-08-29T02:31:51.975Z,3.00
2022-08-29T02:34:19.185Z,4.77
2022-08-29T02:36:49.151Z,2.07
2022-08-29T02:39:16.894Z,2.47
2022-08-29T02:41:44.449Z,4.13
2022-08-29T02:44:11.887Z,2.33
2022-08-29T02:46:39.020Z,4.40
2022-08-29T02:49:06.520Z,3.47
2022-08-29T02:51:35.530Z,2.90
2022-08-29T02:54:03.644Z,2.90
2022-08-29T02:56:31.163Z,2.77
2022-08-29T02:58:58.680Z,4.33
2022-08-29T03:01:26.322Z,5.80
2022-08-29T03:03:53.830Z,2.80
2022-08-29T03:06:21.352Z,4.73
2022-08-29T03:08:48.568Z,4.03
2022-08-29T03:11:17.389Z,3.00
2022-08-29T03:13:45.556Z,2.60
2022-08-29T03:16:13.728Z,1.93
2022-08-29T03:18:40.998Z,4.63
2022-08-29T03:21:20.424Z,3.27
2022-08-29T03:23:49.376Z,3.17
2022-08-29T03:26:16.929Z,2.87
2022-08-29T03:28:44.388Z,3.33
2022-08-29T03:31:11.630Z,2.93
2022-08-29T03:33:39.291Z,2.30
2022-08-29T03:36:13.698Z,2.50
2022-08-29T03:38:43.751Z,2.27
2022-08-29T03:41:11.167Z,2.13
2022-08-29T03:43:38.549Z,4.20
2022-08-29T03:46:05.698Z,2.00
2022-08-29T03:48:33.874Z,2.53
2022-08-29T03:51:01.010Z,2.10
2022-08-29T03:53:28.375Z,3.43
2022-08-29T03:55:57.753Z,4.70
2022-08-29T03:58:25.254Z,3.20
2022-08-29T04:00:52.343Z,3.90
2022-08-29T04:03:21.954Z,2.67
2022-08-29T04:05:52.300Z,2.90
2022-08-29T04:08:22.397Z,3.03
2022-08-29T04:10:49.314Z,4.90
2022-08-29T04:13:16.232Z,1.60
2022-08-29T04:15:43.827Z,4.73
2022-08-29T04:18:11.758Z,3.37
2022-08-29T04:20:44.981Z,2.57
2022-08-29T04:23:13.378Z,1.80
2022-08-29T04:25:43.314Z,3.90
2022-08-29T04:28:12.876Z,3.33
2022-08-29T04:30:49.917Z,3.50
2022-08-29T04:33:22.754Z,5.50
2022-08-29T04:35:53.131Z,2.40
2022-08-29T04:38:22.096Z,2.30
2022-08-29T04:40:48.981Z,2.87
2022-08-29T04:43:16.994Z,3.10
2022-08-29T04:45:43.991Z,3.37
2022-08-29T04:48:11.977Z,3.03
2022-08-29T04:50:41.925Z,3.67
2022-08-29T04:53:08.887Z,3.13
2022-08-29T04:55:41.939Z,7.23
2022-08-29T04:58:14.427Z,4.27
2022-08-29T05:00:46.108Z,3.03
2022-08-29T05:03:13.088Z,3.87
2022-08-29T05:05:41.146Z,6.13
2022-08-29T05:08:11.526Z,3.17
2022-08-29T05:10:38.994Z,2.80
2022-08-29T05:13:05.984Z,3.43
2022-08-29T05:15:34.996Z,2.13
2022-08-29T05:18:05.188Z,4.27
2022-08-29T05:20:35.357Z,2.53
2022-08-29T05:23:02.383Z,4.30
2022-08-29T05:25:32.443Z,3.77
2022-08-29T05:28:02.918Z,4.60
2022-08-29T05:30:35.010Z,5.13
2022-08-29T05:33:02.796Z,5.40
2022-08-29T05:35:32.863Z,2.87
2022-08-29T05:38:07.108Z,4.20
2022-08-29T05:40:38.141Z,6.40
2022-08-29T05:43:07.588Z,4.47
2022-08-29T05:45:34.482Z,7.43
2022-08-29T05:48:06.973Z,5.10
2022-08-29T05:50:39.816Z,3.50
2022-08-29T05:53:06.798Z,4.83
2022-08-29T05:55:42.846Z,3.57
2022-08-29T05:58:11.765Z,3.23
2022-08-29T06:00:43.941Z,6.47
2022-08-29T06:03:11.669Z,3.73
2022-08-29T06:05:39.500Z,3.63
2022-08-29T06:08:07.624Z,5.30
2022-08-29T06:10:39.296Z,6.90
2022-08-29T06:13:06.176Z,2.93
2022-08-29T06:15:33.689Z,2.63
2022-08-29T06:18:00.693Z,3.87
2022-08-29T06:20:27.770Z,4.70
2022-08-29T06:22:54.767Z,2.60
2022-08-29T06:25:38.555Z,3.63
2022-08-29T06:28:06.452Z,3.87
2022-08-29T06:30:34.025Z,3.03
2022-08-29T06:33:02.207Z,3.83
2022-08-29T06:35:29.489Z,4.17
2022-08-29T06:37:56.470Z,2.87
2022-08-29T06:40:23.513Z,5.00
2022-08-29T06:42:50.584Z,3.30
2022-08-29T06:45:17.796Z,2.53
2022-08-29T06:47:47.852Z,2.73
2022-08-29T06:50:16.451Z,5.00
2022-08-29T06:52:43.559Z,4.70
2022-08-29T06:55:14.820Z,2.83
2022-08-29T06:57:43.025Z,3.37
2022-08-29T07:00:22.388Z,2.53
2022-08-29T07:02:51.707Z,3.63
2022-08-29T07:05:20.250Z,3.20
2022-08-29T07:07:47.186Z,4.57
2022-08-29T07:10:18.698Z,2.43
2022-08-29T07:12:49.866Z,6.57
2022-08-29T07:15:16.912Z,2.67
2022-08-29T07:17:43.871Z,4.20
2022-08-29T07:20:11.401Z,6.13
2022-08-29T07:22:39.340Z,4.30
2022-08-29T07:25:08.410Z,2.90
2022-08-29T07:27:35.721Z,2.97
2022-08-29T07:30:05.555Z,5.20
2022-08-29T07:32:32.723Z,5.53
2022-08-29T07:35:00.747Z,5.10
2022-08-29T07:37:27.913Z,4.27
2022-08-29T07:39:56.830Z,5.23
2022-08-29T07:42:25.921Z,5.37
2022-08-29T07:44:55.017Z,3.17
2022-08-29T07:47:26.654Z,3.37
2022-08-29T07:49:53.708Z,5.20
2022-08-29T07:52:20.923Z,3.37
2022-08-29T07:54:49.889Z,3.73
2022-08-29T07:57:18.330Z,2.97
2022-08-29T07:59:45.412Z,2.07
2022-08-29T08:02:13.581Z,3.23
2022-08-29T08:04:40.863Z,2.93
2022-08-29T08:07:14.000Z,2.43
2022-08-29T08:09:44.961Z,3.37
2022-08-29T08:12:12.464Z,3.40
2022-08-29T08:14:39.444Z,9.17
2022-08-29T08:17:06.497Z,3.20
2022-08-29T08:19:34.586Z,3.17
2022-08-29T08:22:02.489Z,3.63
2022-08-29T08:24:29.424Z,3.23
2022-08-29T08:26:58.115Z,3.77
2022-08-29T08:29:25.171Z,3.77
2022-08-29T08:31:52.636Z,3.87
2022-08-29T08:34:20.223Z,2.73
2022-08-29T08:36:47.348Z,4.37
2022-08-29T08:39:16.430Z,7.67
2022-08-29T08:41:54.813Z,7.33
2022-08-29T08:44:21.746Z,2.90
2022-08-29T08:46:52.621Z,3.13
2022-08-29T08:49:39.212Z,3.37
2022-08-29T08:52:16.374Z,3.90
2022-08-29T08:55:02.050Z,3.57
2022-08-29T08:57:44.469Z,2.90
2022-08-29T09:00:14.672Z,4.57
2022-08-29T09:03:05.430Z,6.43
2022-08-29T09:05:49.234Z,7.70
2022-08-29T09:08:35.116Z,4.85
2022-08-29T09:11:36.555Z,4.38
2022-08-29T09:16:58.979Z,3.65
2022-08-29T09:19:27.048Z,5.65
2022-08-29T09:22:08.264Z,3.25
2022-08-29T09:24:51.323Z,3.90
2022-08-29T09:27:24.766Z,4.05
2022-08-29T09:30:09.270Z,4.07
2022-08-29T09:33:00.832Z,5.85
2022-08-29T09:35:51.971Z,3.53
2022-08-29T09:38:25.295Z,3.33
2022-08-29T09:40:58.823Z,4.03
2022-08-29T09:43:28.671Z,2.97
2022-08-29T09:46:07.270Z,5.47
2022-08-29T09:48:41.170Z,4.40
2022-08-29T09:51:24.683Z,4.32
2022-08-29T09:54:10.001Z,4.85
2022-08-29T09:56:48.285Z,4.95
2022-08-29T09:59:23.132Z,5.97
2022-08-29T10:02:28.446Z,3.97
2022-08-29T10:05:02.129Z,4.53
2022-08-29T10:07:55.664Z,4.30
2022-08-29T10:10:27.355Z,4.35
2022-08-29T10:13:21.277Z,5.30
2022-08-29T10:15:59.229Z,7.32
2022-08-29T10:18:51.089Z,4.13
2022-08-29T10:21:20.436Z,3.75
2022-08-29T10:24:15.941Z,5.55
2022-08-29T10:26:55.003Z,4.28
2022-08-29T10:29:36.995Z,2.92
2022-08-29T10:32:29.291Z,4.50
2022-08-29T10:35:15.772Z,3.80
2022-08-29T10:37:57.453Z,4.25
2022-08-29T10:40:47.458Z,4.50
2022-08-29T10:44:08.569Z,7.00
2022-08-29T10:47:02.506Z,4.18
2022-08-29T10:49:31.508Z,3.97
2022-08-29T10:52:23.230Z,6.82
2022-08-29T10:55:11.047Z,5.22
2022-08-29T10:58:01.162Z,2.72
2022-08-29T11:00:46.644Z,2.83
2022-08-29T11:03:40.460Z,5.18
2022-08-29T11:06:33.143Z,5.47
2022-08-29T11:09:18.875Z,3.92
2022-08-29T11:12:04.093Z,5.97
2022-08-29T11:14:43.828Z,7.82
2022-08-29T11:17:13.242Z,3.78
2022-08-29T11:20:11.768Z,4.90
2022-08-29T11:23:01.808Z,5.78
2022-08-29T11:25:30.159Z,3.40
2022-08-29T11:28:28.414Z,2.67
2022-08-29T11:31:16.017Z,3.08
2022-08-29T11:34:09.659Z,3.08
2022-08-29T11:36:43.543Z,5.18
2022-08-29T11:39:41.162Z,3.17
2022-08-29T11:42:11.469Z,3.17
2022-08-29T11:44:55.296Z,4.85
2022-08-29T11:47:41.463Z,3.90
2022-08-29T11:50:15.279Z,5.95
2022-08-29T11:53:06.121Z,5.93
2022-08-29T11:55:37.235Z,3.72
2022-08-29T11:58:25.159Z,3.45
2022-08-29T12:01:00.147Z,4.45
2022-08-29T12:03:37.443Z,3.83
2022-08-29T12:06:24.240Z,2.97
2022-08-29T12:09:14.174Z,4.50
2022-08-29T12:12:06.266Z,3.53
2022-08-29T12:14:38.062Z,5.45
2022-08-29T12:17:51.339Z,2.92
2022-08-29T12:20:32.237Z,4.72
2022-08-29T12:23:15.342Z,4.20
2022-08-29T12:26:15.962Z,3.00
2022-08-29T12:28:58.217Z,5.90
2022-08-29T12:32:17.924Z,5.05
2022-08-29T12:35:11.066Z,4.82
2022-08-29T12:38:09.256Z,2.88
2022-08-29T12:40:57.199Z,4.15
2022-08-29T12:43:44.009Z,5.53
2022-08-29T12:46:26.298Z,4.38
2022-08-29T12:49:23.162Z,4.47
2022-08-29T12:52:05.439Z,2.55
2022-08-29T12:54:39.411Z,4.85
2022-08-29T12:57:09.150Z,4.22
2022-08-29T12:59:45.320Z,5.47
2022-08-29T13:02:35.111Z,3.35
2022-08-29T13:05:19.907Z,5.78
2022-08-29T13:08:11.117Z,5.70
2022-08-29T13:11:13.097Z,5.50
2022-08-29T13:13:43.209Z,6.82
2022-08-29T13:16:24.150Z,7.47
2022-08-29T13:19:09.998Z,6.07
2022-08-29T13:21:38.922Z,5.70
2022-08-29T13:24:24.370Z,4.13
2022-08-29T13:27:04.867Z,3.88
2022-08-29T13:29:41.983Z,5.45
2022-08-29T13:32:26.996Z,6.65
2022-08-29T13:35:03.322Z,7.32
2022-08-29T13:37:36.269Z,5.50
2022-08-29T13:40:41.901Z,6.85
2022-08-29T13:43:37.331Z,4.85
2022-08-29T13:46:15.536Z,4.47
2022-08-29T13:48:44.148Z,6.72
2022-08-29T13:51:11.515Z,4.85
2022-08-29T13:53:38.848Z,5.15
2022-08-29T13:56:22.138Z,3.55
2022-08-29T13:58:51.296Z,4.75
2022-08-29T14:01:30.429Z,4.88
2022-08-29T14:04:15.257Z,5.07
2022-08-29T14:06:50.880Z,4.20
2022-08-29T14:09:35.052Z,4.40
2022-08-29T14:12:02.772Z,4.35
2022-08-29T14:14:29.963Z,4.53
2022-08-29T14:17:00.041Z,5.32
2022-08-29T14:19:31.017Z,8.95
2022-08-29T14:22:02.160Z,4.28
2022-08-29T14:24:33.987Z,5.53
2022-08-29T14:27:04.473Z,6.07
2022-08-29T14:29:35.007Z,7.60
2022-08-29T14:32:05.059Z,6.13
2022-08-29T14:34:34.458Z,7.22
2022-08-29T14:37:05.169Z,12.13
2022-08-29T14:39:33.340Z,32.70
2022-08-29T14:42:04.024Z,23.13
2022-08-29T14:44:34.078Z,28.40
2022-08-29T14:47:00.985Z,10.20
2022-08-29T14:49:27.999Z,9.20
2022-08-29T14:51:54.948Z,13.27
2022-08-29T14:54:21.892Z,12.15
2022-08-29T14:56:50.105Z,5.35
2022-08-29T14:59:19.519Z,10.68
2022-08-29T15:01:52.673Z,10.50
2022-08-29T15:04:36.202Z,5.88
2022-08-29T15:07:10.297Z,14.55
2022-08-29T15:09:38.475Z,3.90
2022-08-29T15:12:05.952Z,3.60
2022-08-29T15:14:34.551Z,19.30
2022-08-29T15:17:02.464Z,11.68
2022-08-29T15:22:16.910Z,7.75
2022-08-29T15:24:44.356Z,8.95
2022-08-29T15:27:12.546Z,5.72
2022-08-29T15:29:40.961Z,11.60
2022-08-29T15:32:08.406Z,6.72
2022-08-29T15:34:35.654Z,8.13
2022-08-29T15:37:05.627Z,11.02
2022-08-29T15:39:32.653Z,10.15
2022-08-29T15:42:02.424Z,9.68
2022-08-29T15:44:29.673Z,13.98
2022-08-29T15:46:57.474Z,6.78
2022-08-29T15:49:26.580Z,4.67
2022-08-29T15:51:54.875Z,6.18
2022-08-29T15:54:23.180Z,4.60
2022-08-29T15:56:50.727Z,3.78
2022-08-29T15:59:18.268Z,4.63
2022-08-29T16:01:53.855Z,4.33
2022-08-29T16:04:24.748Z,7.33
2022-08-29T16:06:52.815Z,8.17
2022-08-29T16:09:20.956Z,9.93
2022-08-29T16:11:51.464Z,11.47
2022-08-29T16:14:57.540Z,10.20
2022-08-29T16:17:07.198Z,5.23
2022-08-29T16:19:37.387Z,4.90
2022-08-29T16:22:06.610Z,3.33
2022-08-29T16:24:39.213Z,9.77
2022-08-29T16:27:07.135Z,3.67
2022-08-29T16:29:35.140Z,6.10
2022-08-29T16:32:02.359Z,6.43
2022-08-29T16:34:30.359Z,4.63
2022-08-29T16:37:03.196Z,5.20
2022-08-29T16:39:31.220Z,8.03
2022-08-29T16:41:59.146Z,10.07
2022-08-29T16:44:26.354Z,8.07
2022-08-29T16:46:53.413Z,3.73
2022-08-29T16:49:20.416Z,10.10
2022-08-29T16:51:47.605Z,6.80
2022-08-29T16:54:16.184Z,5.27
2022-08-29T16:56:45.664Z,6.40
2022-08-29T16:59:13.625Z,3.93
2022-08-29T17:01:45.525Z,5.67
2022-08-29T17:04:20.396Z,8.87
2022-08-29T17:06:50.605Z,5.40
2022-08-29T17:09:20.485Z,9.33
2022-08-29T17:11:48.080Z,5.87
2022-08-29T17:14:16.491Z,6.03
2022-08-29T17:16:46.017Z,5.30
2022-08-29T17:19:14.923Z,8.40
2022-08-29T17:21:43.542Z,4.90
2022-08-29T17:24:11.132Z,3.17
2022-08-29T17:26:40.800Z,11.10
2022-08-29T17:29:09.545Z,6.83
2022-08-29T17:31:38.662Z,3.83
2022-08-29T17:34:07.518Z,6.43
2022-08-29T17:36:40.686Z,4.80
2022-08-29T17:39:11.284Z,6.27
2022-08-29T17:41:41.637Z,3.30
2022-08-29T17:44:11.909Z,5.87
2022-08-29T17:46:38.954Z,4.47
2022-08-29T17:49:08.334Z,3.47
2022-08-29T17:51:35.822Z,5.03
2022-08-29T17:54:06.918Z,5.03
2022-08-29T17:56:55.615Z,4.73
2022-08-29T17:59:24.260Z,4.73
2022-08-29T18:01:51.263Z,3.77
2022-08-29T18:04:19.676Z,4.83
2022-08-29T18:06:47.286Z,7.63
2022-08-29T18:09:14.768Z,9.07
2022-08-29T18:11:45.924Z,6.40
2022-08-29T18:14:13.232Z,7.40
2022-08-29T18:16:40.274Z,3.17
2022-08-29T18:19:07.982Z,5.00
2022-08-29T18:21:36.116Z,4.93
2022-08-29T18:24:04.001Z,4.83
2022-08-29T18:26:33.707Z,7.13
2022-08-29T18:29:01.340Z,4.23
2022-08-29T18:31:28.335Z,4.13
2022-08-29T18:34:02.590Z,6.60
2022-08-29T18:36:35.648Z,10.43
2022-08-29T18:39:05.427Z,5.90
2022-08-29T18:41:33.096Z,5.97
2022-08-29T18:44:01.402Z,8.03
2022-08-29T18:46:29.132Z,6.70
2022-08-29T18:48:57.565Z,6.20
2022-08-29T18:51:26.961Z,4.40
2022-08-29T18:53:58.243Z,8.40
2022-08-29T18:56:26.777Z,5.40
2022-08-29T18:58:58.797Z,4.43
2022-08-29T19:01:28.698Z,6.97
2022-08-29T19:03:58.053Z,6.77
2022-08-29T19:06:26.112Z,8.40
2022-08-29T19:08:54.270Z,6.00
2022-08-29T19:11:21.321Z,5.47
2022-08-29T19:13:52.278Z,5.63
2022-08-29T19:16:21.233Z,4.83
2022-08-29T19:18:48.517Z,8.33
2022-08-29T19:21:15.451Z,7.30
2022-08-29T19:23:45.614Z,6.03
2022-08-29T19:26:29.911Z,4.43
2022-08-29T19:28:59.460Z,4.93
2022-08-29T19:31:27.854Z,5.40
2022-08-29T19:33:55.220Z,8.07
2022-08-29T19:36:23.556Z,8.67
2022-08-29T19:38:51.147Z,6.67
2022-08-29T19:41:18.690Z,10.13
2022-08-29T19:43:46.154Z,6.90
2022-08-29T19:46:18.078Z,3.97
2022-08-29T19:48:48.606Z,5.07
2022-08-29T19:51:21.259Z,7.23
2022-08-29T19:53:48.627Z,5.97
2022-08-29T19:56:17.902Z,6.23
2022-08-29T19:58:46.250Z,7.00
2022-08-29T20:01:13.285Z,10.67
2022-08-29T20:03:42.053Z,5.80
2022-08-29T20:06:09.940Z,6.00
2022-08-29T20:08:41.642Z,4.83
2022-08-29T20:11:21.186Z,8.90
2022-08-29T20:13:51.204Z,5.03
2022-08-29T20:16:22.684Z,6.07
2022-08-29T20:18:50.708Z,5.30
2022-08-29T20:21:19.541Z,6.13
2022-08-29T20:23:49.869Z,13.17
2022-08-29T20:26:19.297Z,6.30
2022-08-29T20:28:47.509Z,9.10
2022-08-29T20:31:16.763Z,7.03
2022-08-29T20:33:45.012Z,7.87
2022-08-29T20:36:30.801Z,5.37
2022-08-29T20:39:00.628Z,5.57
2022-08-29T20:41:28.619Z,8.70
2022-08-29T20:43:55.622Z,6.57
2022-08-29T20:46:22.610Z,9.17
2022-08-29T20:48:49.682Z,7.17
2022-08-29T20:51:16.614Z,7.70
2022-08-29T20:53:43.862Z,8.27
2022-08-29T20:56:11.277Z,8.70
2022-08-29T20:58:38.375Z,7.47
2022-08-29T21:01:05.609Z,4.17
2022-08-29T21:03:52.775Z,5.73
2022-08-29T21:06:20.515Z,6.70
2022-08-29T21:08:48.843Z,9.97
2022-08-29T21:11:16.392Z,6.70
2022-08-29T21:13:43.590Z,4.00
2022-08-29T21:16:11.370Z,6.43
2022-08-29T21:18:39.163Z,7.07
2022-08-29T21:21:06.536Z,6.37
2022-08-29T21:23:34.427Z,7.20
2022-08-29T21:26:02.076Z,7.90
2022-08-29T21:28:32.870Z,8.40
2022-08-29T21:31:08.368Z,7.10
2022-08-29T21:33:40.393Z,7.63
2022-08-29T21:36:15.404Z,7.13
2022-08-29T21:38:42.361Z,10.73
2022-08-29T21:41:11.055Z,8.40
2022-08-29T21:43:40.688Z,6.60
2022-08-29T21:46:19.513Z,5.40
2022-08-29T21:48:47.138Z,8.90
2022-08-29T21:51:18.715Z,7.00
2022-08-29T21:53:47.532Z,4.73
2022-08-29T21:56:15.052Z,8.07
2022-08-29T21:58:42.280Z,7.73
2022-08-29T22:01:12.254Z,9.10
2022-08-29T22:03:39.754Z,7.97
2022-08-29T22:06:08.346Z,4.97
2022-08-29T22:08:38.556Z,9.40
2022-08-29T22:11:22.132Z,8.03
2022-08-29T22:13:50.795Z,5.13
2022-08-29T22:16:30.164Z,6.77
2022-08-29T22:19:12.498Z,7.63
2022-08-29T22:21:46.801Z,10.60
2022-08-29T22:24:16.458Z,7.20
2022-08-29T22:26:44.768Z,6.97
2022-08-29T22:29:14.224Z,8.23
2022-08-29T22:31:42.476Z,9.77
2022-08-29T22:34:11.482Z,8.13
2022-08-29T22:36:38.466Z,9.13
2022-08-29T22:39:05.479Z,9.60
2022-08-29T22:41:32.831Z,9.10
2022-08-29T22:44:47.151Z,9.47
2022-08-29T22:46:48.883Z,11.37
2022-08-29T22:49:16.121Z,9.37
2022-08-29T22:51:43.018Z,12.57
2022-08-29T22:54:28.308Z,8.00
2022-08-29T22:56:55.294Z,10.00
2022-08-29T22:59:22.819Z,11.20
2022-08-29T23:01:49.791Z,11.87
2022-08-29T23:04:16.916Z,8.70
2022-08-29T23:06:44.071Z,13.53
2022-08-29T23:09:11.037Z,10.77
2022-08-29T23:11:38.282Z,12.33
2022-08-29T23:14:06.504Z,7.07
2022-08-29T23:16:35.690Z,10.33
2022-08-29T23:19:03.476Z,8.23
2022-08-29T23:21:31.639Z,13.17
2022-08-29T23:23:59.246Z,10.10
2022-08-29T23:26:27.211Z,11.27
2022-08-29T23:28:55.030Z,12.40
2022-08-29T23:31:23.032Z,6.93
2022-08-29T23:33:50.684Z,10.27
2022-08-29T23:36:18.728Z,10.60
2022-08-29T23:38:46.033Z,10.20
2022-08-29T23:41:13.728Z,9.43
2022-08-29T23:43:41.323Z,8.80
2022-08-29T23:46:08.709Z,8.70
2022-08-29T23:48:35.992Z,6.30
2022-08-29T23:51:08.944Z,8.13
2022-08-29T23:53:36.248Z,12.33
2022-08-29T23:56:12.484Z,12.00
2022-08-29T23:58:40.139Z,10.53
